sensor_id;sensor_type;location;lat;lon;timestamp;pressure;altitude;pressure_sealevel;temperature;humidity
78313;BME280;67568;47.438;21.408;2023-12-04T00:00:46;101463.16;;;-1.16;92.08
78313;BME280;67568;47.438;21.408;2023-12-04T00:03:13;101462.22;;;-1.29;91.77
78313;BME280;67568;47.438;21.408;2023-12-04T00:05:42;101468.16;;;-1.19;91.46
78313;BME280;67568;47.438;21.408;2023-12-04T00:08:12;101462.22;;;-1.29;93.14
78313;BME280;67568;47.438;21.408;2023-12-04T00:10:39;101470.88;;;-1.19;93.26
78313;BME280;67568;47.438;21.408;2023-12-04T00:13:08;101471.19;;;-1.07;92.57
78313;BME280;67568;47.438;21.408;2023-12-04T00:15:38;101459.34;;;-1.21;92.67
78313;BME280;67568;47.438;21.408;2023-12-04T00:18:07;101473.59;;;-1.19;91.96
78313;BME280;67568;47.438;21.408;2023-12-04T00:20:34;101476.13;;;-1.18;92.63
78313;BME280;67568;47.438;21.408;2023-12-04T00:23:01;101474.88;;;-1.15;91.16
78313;BME280;67568;47.438;21.408;2023-12-04T00:25:30;101480.38;;;-1.08;91.47
78313;BME280;67568;47.438;21.408;2023-12-04T00:27:57;101471.97;;;-1.14;90.76
78313;BME280;67568;47.438;21.408;2023-12-04T00:30:33;101479.53;;;-1.09;92.17
78313;BME280;67568;47.438;21.408;2023-12-04T00:33:05;101481.22;;;-1.08;91.26
78313;BME280;67568;47.438;21.408;2023-12-04T00:35:32;101479.09;;;-1.13;92.17
78313;BME280;67568;47.438;21.408;2023-12-04T00:37:59;101485.75;;;-1.15;91.41
78313;BME280;67568;47.438;21.408;2023-12-04T00:40:26;101475.28;;;-1.18;91.92
78313;BME280;67568;47.438;21.408;2023-12-04T00:42:52;101470.19;;;-1.28;92.15
78313;BME280;67568;47.438;21.408;2023-12-04T00:45:19;101475.38;;;-1.33;91.83
78313;BME280;67568;47.438;21.408;2023-12-04T00:47:48;101484.34;;;-1.32;91.17
78313;BME280;67568;47.438;21.408;2023-12-04T00:50:18;101477.66;;;-1.37;91.06
78313;BME280;67568;47.438;21.408;2023-12-04T00:52:45;101475.25;;;-1.46;91.54
78313;BME280;67568;47.438;21.408;2023-12-04T00:55:12;101476.72;;;-1.44;92.28
78313;BME280;67568;47.438;21.408;2023-12-04T00:57:39;101471.03;;;-1.49;93.14
78313;BME280;67568;47.438;21.408;2023-12-04T01:00:08;101475.38;;;-1.54;92.17
78313;BME280;67568;47.438;21.408;2023-12-04T01:02:35;101486.63;;;-1.58;93.31
78313;BME280;67568;47.438;21.408;2023-12-04T01:05:03;101478.47;;;-1.58;93.17
78313;BME280;67568;47.438;21.408;2023-12-04T01:07:33;101485.41;;;-1.55;93.15
78313;BME280;67568;47.438;21.408;2023-12-04T01:09:59;101491.69;;;-1.54;92.05
78313;BME280;67568;47.438;21.408;2023-12-04T01:12:26;101498.72;;;-1.60;92.34
78313;BME280;67568;47.438;21.408;2023-12-04T01:14:56;101490.56;;;-1.60;92.95
78313;BME280;67568;47.438;21.408;2023-12-04T01:17:25;101495.81;;;-1.59;91.94
78313;BME280;67568;47.438;21.408;2023-12-04T01:19:52;101490.69;;;-1.68;91.97
78313;BME280;67568;47.438;21.408;2023-12-04T01:22:23;101490.91;;;-1.70;93.12
78313;BME280;67568;47.438;21.408;2023-12-04T01:24:50;101493.19;;;-1.73;92.24
78313;BME280;67568;47.438;21.408;2023-12-04T01:27:17;101493.28;;;-1.82;92.80
78313;BME280;67568;47.438;21.408;2023-12-04T01:29:44;101494.41;;;-1.76;92.10
78313;BME280;67568;47.438;21.408;2023-12-04T01:32:14;101488.56;;;-1.73;92.79
78313;BME280;67568;47.438;21.408;2023-12-04T01:34:44;101493.63;;;-1.70;92.01
78313;BME280;67568;47.438;21.408;2023-12-04T01:37:10;101505.16;;;-1.68;91.51
78313;BME280;67568;47.438;21.408;2023-12-04T01:39:40;101494.69;;;-1.86;91.91
78313;BME280;67568;47.438;21.408;2023-12-04T01:42:09;101496.97;;;-1.89;92.42
78313;BME280;67568;47.438;21.408;2023-12-04T01:44:36;101496.84;;;-1.81;92.98
78313;BME280;67568;47.438;21.408;2023-12-04T01:47:03;101492.25;;;-1.81;92.93
78313;BME280;67568;47.438;21.408;2023-12-04T01:49:34;101491.84;;;-1.77;92.64
78313;BME280;67568;47.438;21.408;2023-12-04T01:52:04;101489.81;;;-1.75;92.96
78313;BME280;67568;47.438;21.408;2023-12-04T01:54:34;101496.06;;;-1.75;92.34
78313;BME280;67568;47.438;21.408;2023-12-04T01:57:06;101494.56;;;-1.77;91.33
78313;BME280;67568;47.438;21.408;2023-12-04T01:59:33;101496.47;;;-1.78;92.81
78313;BME280;67568;47.438;21.408;2023-12-04T02:02:00;101495.34;;;-1.84;91.35
78313;BME280;67568;47.438;21.408;2023-12-04T02:04:30;101500.41;;;-1.81;92.97
78313;BME280;67568;47.438;21.408;2023-12-04T02:06:58;101498.72;;;-1.82;92.77
78313;BME280;67568;47.438;21.408;2023-12-04T02:09:25;101497.41;;;-1.86;91.56
78313;BME280;67568;47.438;21.408;2023-12-04T02:11:52;101498.91;;;-1.83;91.17
78313;BME280;67568;47.438;21.408;2023-12-04T02:14:24;101494.91;;;-1.87;92.08
78313;BME280;67568;47.438;21.408;2023-12-04T02:16:52;101484.22;;;-1.89;91.55
78313;BME280;67568;47.438;21.408;2023-12-04T02:19:20;101492.47;;;-1.97;91.62
78313;BME280;67568;47.438;21.408;2023-12-04T02:21:50;101498.84;;;-1.90;90.99
78313;BME280;67568;47.438;21.408;2023-12-04T02:24:17;101490.69;;;-1.90;91.58
78313;BME280;67568;47.438;21.408;2023-12-04T02:26:53;101499.63;;;-1.96;91.92
78313;BME280;67568;47.438;21.408;2023-12-04T02:29:31;101488.19;;;-2.06;91.97
78313;BME280;67568;47.438;21.408;2023-12-04T02:32:01;101487.16;;;-2.05;92.25
78313;BME280;67568;47.438;21.408;2023-12-04T02:34:32;101488.75;;;-1.96;91.42
78313;BME280;67568;47.438;21.408;2023-12-04T02:37:01;101492.47;;;-1.97;91.34
78313;BME280;67568;47.438;21.408;2023-12-04T02:39:29;101500.63;;;-1.97;91.35
78313;BME280;67568;47.438;21.408;2023-12-04T02:41:56;101504.50;;;-2.06;91.13
78313;BME280;67568;47.438;21.408;2023-12-04T02:44:23;101507.31;;;-2.14;91.72
78313;BME280;67568;47.438;21.408;2023-12-04T02:46:50;101503.09;;;-2.17;91.43
78313;BME280;67568;47.438;21.408;2023-12-04T02:49:21;101505.63;;;-2.15;91.12
78313;BME280;67568;47.438;21.408;2023-12-04T02:51:48;101505.34;;;-2.20;92.35
78313;BME280;67568;47.438;21.408;2023-12-04T02:54:15;101509.13;;;-2.21;91.34
78313;BME280;67568;47.438;21.408;2023-12-04T02:56:50;101512.59;;;-2.28;91.25
78313;BME280;67568;47.438;21.408;2023-12-04T02:59:21;101500.59;;;-2.18;92.07
78313;BME280;67568;47.438;21.408;2023-12-04T03:01:48;101504.81;;;-2.16;91.68
78313;BME280;67568;47.438;21.408;2023-12-04T03:04:19;101504.31;;;-2.19;91.87
78313;BME280;67568;47.438;21.408;2023-12-04T03:06:46;101501.97;;;-2.22;92.05
78313;BME280;67568;47.438;21.408;2023-12-04T03:09:15;101502.94;;;-2.30;91.06
78313;BME280;67568;47.438;21.408;2023-12-04T03:11:42;101508.75;;;-2.33;91.79
78313;BME280;67568;47.438;21.408;2023-12-04T03:14:09;101512.22;;;-2.24;91.26
78313;BME280;67568;47.438;21.408;2023-12-04T03:16:36;101513.59;;;-2.29;90.34
78313;BME280;67568;47.438;21.408;2023-12-04T03:19:08;101517.16;;;-2.43;91.60
78313;BME280;67568;47.438;21.408;2023-12-04T03:21:35;101519.44;;;-2.61;91.41
78313;BME280;67568;47.438;21.408;2023-12-04T03:24:04;101510.34;;;-2.68;92.50
78313;BME280;67568;47.438;21.408;2023-12-04T03:26:31;101502.94;;;-2.60;91.91
78313;BME280;67568;47.438;21.408;2023-12-04T03:28:58;101502.84;;;-2.66;93.03
78313;BME280;67568;47.438;21.408;2023-12-04T03:31:26;101507.91;;;-2.63;92.59
78313;BME280;67568;47.438;21.408;2023-12-04T03:33:55;101513.34;;;-2.63;91.99
78313;BME280;67568;47.438;21.408;2023-12-04T03:36:22;101511.00;;;-2.66;92.13
78313;BME280;67568;47.438;21.408;2023-12-04T03:38:49;101519.31;;;-2.68;92.83
78313;BME280;67568;47.438;21.408;2023-12-04T03:41:18;101517.53;;;-2.76;93.28
78313;BME280;67568;47.438;21.408;2023-12-04T03:43:44;101516.97;;;-2.86;94.22
78313;BME280;67568;47.438;21.408;2023-12-04T03:46:14;101522.97;;;-2.76;93.09
78313;BME280;67568;47.438;21.408;2023-12-04T03:48:40;101518.56;;;-2.77;92.84
78313;BME280;67568;47.438;21.408;2023-12-04T03:51:07;101523.34;;;-2.79;93.18
78313;BME280;67568;47.438;21.408;2023-12-04T03:53:35;101528.47;;;-2.84;94.06
78313;BME280;67568;47.438;21.408;2023-12-04T03:56:04;101532.94;;;-2.91;94.51
78313;BME280;67568;47.438;21.408;2023-12-04T03:58:31;101534.91;;;-2.85;94.50
78313;BME280;67568;47.438;21.408;2023-12-04T04:01:01;101535.66;;;-2.91;94.79
78313;BME280;67568;47.438;21.408;2023-12-04T04:03:28;101537.34;;;-2.90;93.63
78313;BME280;67568;47.438;21.408;2023-12-04T04:05:58;101543.03;;;-2.85;94.46
78313;BME280;67568;47.438;21.408;2023-12-04T04:08:24;101550.34;;;-2.71;93.11
78313;BME280;67568;47.438;21.408;2023-12-04T04:10:51;101535.88;;;-2.78;93.29
78313;BME280;67568;47.438;21.408;2023-12-04T04:13:18;101537.00;;;-2.72;92.96
78313;BME280;67568;47.438;21.408;2023-12-04T04:15:46;101526.16;;;-2.72;93.39
78313;BME280;67568;47.438;21.408;2023-12-04T04:18:13;101530.53;;;-2.86;93.34
78313;BME280;67568;47.438;21.408;2023-12-04T04:20:39;101532.19;;;-2.85;93.89
78313;BME280;67568;47.438;21.408;2023-12-04T04:23:06;101537.25;;;-2.82;94.15
78313;BME280;67568;47.438;21.408;2023-12-04T04:25:33;101537.53;;;-2.77;93.29
78313;BME280;67568;47.438;21.408;2023-12-04T04:28:00;101553.34;;;-2.65;92.74
78313;BME280;67568;47.438;21.408;2023-12-04T04:30:27;101560.88;;;-2.67;93.16
78313;BME280;67568;47.438;21.408;2023-12-04T04:33:03;101560.66;;;-2.81;92.31
78313;BME280;67568;47.438;21.408;2023-12-04T04:35:30;101561.47;;;-2.80;92.99
78313;BME280;67568;47.438;21.408;2023-12-04T04:37:57;101557.84;;;-2.73;92.61
78313;BME280;67568;47.438;21.408;2023-12-04T04:40:25;101556.53;;;-2.77;92.42
78313;BME280;67568;47.438;21.408;2023-12-04T04:42:52;101564.03;;;-2.79;94.01
78313;BME280;67568;47.438;21.408;2023-12-04T04:45:19;101563.25;;;-2.87;93.77
78313;BME280;67568;47.438;21.408;2023-12-04T04:47:46;101560.41;;;-2.94;93.74
78313;BME280;67568;47.438;21.408;2023-12-04T04:50:13;101567.81;;;-2.88;93.30
78313;BME280;67568;47.438;21.408;2023-12-04T04:52:39;101565.59;;;-2.84;93.38
78313;BME280;67568;47.438;21.408;2023-12-04T04:55:06;101568.84;;;-2.89;92.84
78313;BME280;67568;47.438;21.408;2023-12-04T04:57:34;101572.31;;;-2.95;93.68
78313;BME280;67568;47.438;21.408;2023-12-04T05:00:01;101569.88;;;-2.90;93.12
78313;BME280;67568;47.438;21.408;2023-12-04T05:02:27;101574.28;;;-2.89;92.90
78313;BME280;67568;47.438;21.408;2023-12-04T05:04:54;101575.69;;;-2.93;93.42
78313;BME280;67568;47.438;21.408;2023-12-04T05:07:21;101571.16;;;-3.01;92.89
78313;BME280;67568;47.438;21.408;2023-12-04T05:09:48;101582.53;;;-3.05;94.04
78313;BME280;67568;47.438;21.408;2023-12-04T05:12:15;101578.88;;;-3.12;93.85
78313;BME280;67568;47.438;21.408;2023-12-04T05:14:44;101579.47;;;-3.02;94.16
78313;BME280;67568;47.438;21.408;2023-12-04T05:17:11;101575.84;;;-2.95;93.05
78313;BME280;67568;47.438;21.408;2023-12-04T05:19:40;101580.38;;;-2.87;92.66
78313;BME280;67568;47.438;21.408;2023-12-04T05:22:09;101574.28;;;-2.89;93.76
78313;BME280;67568;47.438;21.408;2023-12-04T05:24:38;101571.72;;;-2.90;93.45
78313;BME280;67568;47.438;21.408;2023-12-04T05:27:08;101572.31;;;-2.95;93.61
78313;BME280;67568;47.438;21.408;2023-12-04T05:29:37;101577.19;;;-3.13;93.83
78313;BME280;67568;47.438;21.408;2023-12-04T05:32:04;101582.75;;;-3.07;93.95
78313;BME280;67568;47.438;21.408;2023-12-04T05:34:31;101587.06;;;-2.98;93.72
78313;BME280;67568;47.438;21.408;2023-12-04T05:36:58;101583.56;;;-3.06;93.23
78313;BME280;67568;47.438;21.408;2023-12-04T05:39:24;101575.97;;;-3.11;93.34
78313;BME280;67568;47.438;21.408;2023-12-04T05:41:51;101579.06;;;-3.14;94.04
78313;BME280;67568;47.438;21.408;2023-12-04T05:44:18;101579.72;;;-3.12;93.67
78313;BME280;67568;47.438;21.408;2023-12-04T05:46:45;101575.13;;;-3.11;93.33
78313;BME280;67568;47.438;21.408;2023-12-04T05:49:11;101580.88;;;-3.06;92.76
78313;BME280;67568;47.438;21.408;2023-12-04T05:51:38;101580.09;;;-3.15;93.36
78313;BME280;67568;47.438;21.408;2023-12-04T05:54:05;101581.28;;;-3.18;93.93
78313;BME280;67568;47.438;21.408;2023-12-04T05:56:32;101578.59;;;-3.18;93.01
78313;BME280;67568;47.438;21.408;2023-12-04T05:59:01;101588.94;;;-3.21;92.68
78313;BME280;67568;47.438;21.408;2023-12-04T06:01:28;101587.66;;;-3.10;93.28
78313;BME280;67568;47.438;21.408;2023-12-04T06:03:55;101583.28;;;-3.11;93.40
78313;BME280;67568;47.438;21.408;2023-12-04T06:06:22;101596.34;;;-3.15;92.78
78313;BME280;67568;47.438;21.408;2023-12-04T06:08:48;101601.88;;;-3.08;93.30
78313;BME280;67568;47.438;21.408;2023-12-04T06:11:16;101593.50;;;-3.22;93.54
78313;BME280;67568;47.438;21.408;2023-12-04T06:13:45;101593.94;;;-3.10;92.79
78313;BME280;67568;47.438;21.408;2023-12-04T06:16:12;101588.53;;;-3.10;93.38
78313;BME280;67568;47.438;21.408;2023-12-04T06:18:38;101591.94;;;-3.16;93.45
78313;BME280;67568;47.438;21.408;2023-12-04T06:21:05;101596.22;;;-2.99;92.93
78313;BME280;67568;47.438;21.408;2023-12-04T06:23:33;101604.63;;;-2.94;93.81
78313;BME280;67568;47.438;21.408;2023-12-04T06:26:02;101603.06;;;-2.88;93.20
78313;BME280;67568;47.438;21.408;2023-12-04T06:28:32;101600.69;;;-2.68;92.79
78313;BME280;67568;47.438;21.408;2023-12-04T06:30:59;101601.72;;;-2.69;92.79
78313;BME280;67568;47.438;21.408;2023-12-04T06:33:27;101613.56;;;-2.47;92.23
78313;BME280;67568;47.438;21.408;2023-12-04T06:35:54;101616.81;;;-2.37;93.60
78313;BME280;67568;47.438;21.408;2023-12-04T06:38:24;101611.03;;;-2.34;92.32
78313;BME280;67568;47.438;21.408;2023-12-04T06:40:52;101615.34;;;-2.24;92.97
78313;BME280;67568;47.438;21.408;2023-12-04T06:43:21;101613.66;;;-2.11;92.85
78313;BME280;67568;47.438;21.408;2023-12-04T06:45:48;101616.84;;;-2.07;91.82
78313;BME280;67568;47.438;21.408;2023-12-04T06:48:15;101610.28;;;-1.98;91.83
78313;BME280;67568;47.438;21.408;2023-12-04T06:50:43;101615.72;;;-1.98;90.30
78313;BME280;67568;47.438;21.408;2023-12-04T06:53:09;101607.66;;;-1.76;89.27
78313;BME280;67568;47.438;21.408;2023-12-04T06:55:36;101618.72;;;-1.20;89.49
78313;BME280;67568;47.438;21.408;2023-12-04T06:58:03;101629.56;;;-0.84;86.08
78313;BME280;67568;47.438;21.408;2023-12-04T07:00:30;101625.91;;;-0.48;84.96
78313;BME280;67568;47.438;21.408;2023-12-04T07:02:56;101633.47;;;0.26;81.69
78313;BME280;67568;47.438;21.408;2023-12-04T07:05:26;101632.66;;;0.94;78.05
78313;BME280;67568;47.438;21.408;2023-12-04T07:07:53;101624.31;;;1.48;76.42
78313;BME280;67568;47.438;21.408;2023-12-04T07:10:22;101625.16;;;1.35;76.41
78313;BME280;67568;47.438;21.408;2023-12-04T07:12:49;101620.16;;;2.31;72.95
78313;BME280;67568;47.438;21.408;2023-12-04T07:15:15;101627.22;;;2.90;71.30
78313;BME280;67568;47.438;21.408;2023-12-04T07:17:52;101631.22;;;3.26;70.92
78313;BME280;67568;47.438;21.408;2023-12-04T07:20:21;101627.16;;;4.22;67.45
78313;BME280;67568;47.438;21.408;2023-12-04T07:22:50;101631.72;;;4.46;66.57
78313;BME280;67568;47.438;21.408;2023-12-04T07:25:17;101629.28;;;4.20;65.88
78313;BME280;67568;47.438;21.408;2023-12-04T07:27:47;101635.44;;;4.52;66.50
78313;BME280;67568;47.438;21.408;2023-12-04T07:30:16;101639.19;;;5.83;63.83
78313;BME280;67568;47.438;21.408;2023-12-04T07:32:45;101627.16;;;6.48;62.15
78313;BME280;67568;47.438;21.408;2023-12-04T07:35:11;101644.06;;;7.72;56.19
78313;BME280;67568;47.438;21.408;2023-12-04T07:37:38;101640.97;;;8.24;54.65
78313;BME280;67568;47.438;21.408;2023-12-04T07:40:08;101638.03;;;8.30;54.43
78313;BME280;67568;47.438;21.408;2023-12-04T07:42:36;101628.94;;;6.66;55.70
78313;BME280;67568;47.438;21.408;2023-12-04T07:45:03;101622.16;;;5.51;58.69
78313;BME280;67568;47.438;21.408;2023-12-04T07:47:30;101628.03;;;4.71;61.35
78313;BME280;67568;47.438;21.408;2023-12-04T07:49:57;101632.13;;;4.80;62.67
78313;BME280;67568;47.438;21.408;2023-12-04T07:52:24;101641.94;;;4.39;61.15
78313;BME280;67568;47.438;21.408;2023-12-04T07:54:51;101632.94;;;4.14;62.79
78313;BME280;67568;47.438;21.408;2023-12-04T07:57:18;101630.53;;;3.80;64.86
78313;BME280;67568;47.438;21.408;2023-12-04T07:59:45;101639.50;;;5.52;61.34
78313;BME280;67568;47.438;21.408;2023-12-04T08:02:16;101638.66;;;8.16;54.03
78313;BME280;67568;47.438;21.408;2023-12-04T08:04:43;101648.78;;;9.79;49.99
78313;BME280;67568;47.438;21.408;2023-12-04T08:07:12;101655.47;;;10.26;47.26
78313;BME280;67568;47.438;21.408;2023-12-04T08:09:40;101656.72;;;12.36;42.48
78313;BME280;67568;47.438;21.408;2023-12-04T08:12:07;101658.63;;;13.11;42.35
78313;BME280;67568;47.438;21.408;2023-12-04T08:14:34;101655.53;;;10.94;44.68
78313;BME280;67568;47.438;21.408;2023-12-04T08:17:01;101668.91;;;11.17;45.45
78313;BME280;67568;47.438;21.408;2023-12-04T08:19:31;101663.81;;;9.56;46.44
78313;BME280;67568;47.438;21.408;2023-12-04T08:22:01;101662.13;;;8.35;50.61
78313;BME280;67568;47.438;21.408;2023-12-04T08:24:27;101681.88;;;8.88;49.56
78313;BME280;67568;47.438;21.408;2023-12-04T08:26:56;101685.00;;;11.20;44.61
78313;BME280;67568;47.438;21.408;2023-12-04T08:29:26;101695.34;;;11.61;42.55
78313;BME280;67568;47.438;21.408;2023-12-04T08:31:53;101695.94;;;12.14;41.85
78313;BME280;67568;47.438;21.408;2023-12-04T08:34:19;101706.47;;;11.71;42.23
78313;BME280;67568;47.438;21.408;2023-12-04T08:36:47;101701.50;;;10.32;45.72
78313;BME280;67568;47.438;21.408;2023-12-04T08:39:15;101709.22;;;9.33;42.62
78313;BME280;67568;47.438;21.408;2023-12-04T08:41:49;101703.66;;;9.28;46.56
78313;BME280;67568;47.438;21.408;2023-12-04T08:44:38;101706.53;;;10.93;45.05
78313;BME280;67568;47.438;21.408;2023-12-04T08:47:08;101714.41;;;11.16;42.96
78313;BME280;67568;47.438;21.408;2023-12-04T08:49:35;101704.78;;;10.71;43.85
78313;BME280;67568;47.438;21.408;2023-12-04T08:52:11;101708.56;;;9.80;44.83
78313;BME280;67568;47.438;21.408;2023-12-04T08:54:41;101693.25;;;10.00;44.78
78313;BME280;67568;47.438;21.408;2023-12-04T08:57:08;101699.88;;;8.46;46.99
78313;BME280;67568;47.438;21.408;2023-12-04T08:59:35;101702.50;;;10.21;43.85
78313;BME280;67568;47.438;21.408;2023-12-04T09:02:02;101697.16;;;11.09;42.95
78313;BME280;67568;47.438;21.408;2023-12-04T09:04:32;101703.25;;;11.01;43.35
78313;BME280;67568;47.438;21.408;2023-12-04T09:07:00;101707.34;;;10.30;43.91
78313;BME280;67568;47.438;21.408;2023-12-04T09:09:29;101702.47;;;11.21;40.33
78313;BME280;67568;47.438;21.408;2023-12-04T09:11:57;101701.94;;;11.24;43.35
78313;BME280;67568;47.438;21.408;2023-12-04T09:14:24;101691.19;;;11.84;39.44
78313;BME280;67568;47.438;21.408;2023-12-04T09:16:51;101694.16;;;11.26;41.63
78313;BME280;67568;47.438;21.408;2023-12-04T09:19:18;101684.44;;;10.45;42.51
78313;BME280;67568;47.438;21.408;2023-12-04T09:21:45;101691.75;;;11.65;41.67
78313;BME280;67568;47.438;21.408;2023-12-04T09:24:13;101686.19;;;11.65;41.03
78313;BME280;67568;47.438;21.408;2023-12-04T09:26:43;101684.41;;;10.03;42.55
78313;BME280;67568;47.438;21.408;2023-12-04T09:29:11;101681.81;;;8.39;45.73
78313;BME280;67568;47.438;21.408;2023-12-04T09:31:38;101675.91;;;7.96;46.24
78313;BME280;67568;47.438;21.408;2023-12-04T09:34:05;101672.88;;;8.53;45.96
78313;BME280;67568;47.438;21.408;2023-12-04T09:36:32;101662.63;;;8.32;46.44
78313;BME280;67568;47.438;21.408;2023-12-04T09:38:59;101662.78;;;7.70;47.32
78313;BME280;67568;47.438;21.408;2023-12-04T09:41:26;101661.53;;;7.60;48.64
78313;BME280;67568;47.438;21.408;2023-12-04T09:43:53;101653.88;;;7.34;49.07
78313;BME280;67568;47.438;21.408;2023-12-04T09:46:21;101660.59;;;6.28;52.30
78313;BME280;67568;47.438;21.408;2023-12-04T09:48:48;101662.47;;;6.63;51.59
78313;BME280;67568;47.438;21.408;2023-12-04T09:51:20;101653.63;;;6.49;51.33
78313;BME280;67568;47.438;21.408;2023-12-04T09:53:49;101655.09;;;6.81;50.95
78313;BME280;67568;47.438;21.408;2023-12-04T09:56:16;101647.50;;;6.59;50.57
78313;BME280;67568;47.438;21.408;2023-12-04T09:58:44;101642.19;;;6.29;51.58
78313;BME280;67568;47.438;21.408;2023-12-04T10:01:18;101644.41;;;7.75;48.31
78313;BME280;67568;47.438;21.408;2023-12-04T10:03:45;101654.28;;;6.16;49.89
78313;BME280;67568;47.438;21.408;2023-12-04T10:06:16;101647.78;;;5.75;52.50
78313;BME280;67568;47.438;21.408;2023-12-04T10:08:44;101643.41;;;5.98;52.18
78313;BME280;67568;47.438;21.408;2023-12-04T10:11:29;101645.97;;;5.69;52.38
78313;BME280;67568;47.438;21.408;2023-12-04T10:13:56;101637.25;;;5.60;53.36
78313;BME280;67568;47.438;21.408;2023-12-04T10:16:33;101644.53;;;5.55;53.76
78313;BME280;67568;47.438;21.408;2023-12-04T10:19:16;101644.34;;;7.25;50.72
78313;BME280;67568;47.438;21.408;2023-12-04T10:21:49;101649.25;;;8.24;48.55
78313;BME280;67568;47.438;21.408;2023-12-04T10:24:36;101638.50;;;6.64;51.47
78313;BME280;67568;47.438;21.408;2023-12-04T10:27:05;101627.09;;;5.84;53.98
78313;BME280;67568;47.438;21.408;2023-12-04T10:29:44;101643.47;;;5.79;53.61
78313;BME280;67568;47.438;21.408;2023-12-04T10:32:17;101637.00;;;5.62;54.46
78313;BME280;67568;47.438;21.408;2023-12-04T10:34:44;101636.44;;;5.83;55.22
78313;BME280;67568;47.438;21.408;2023-12-04T10:37:14;101625.22;;;5.97;51.74
78313;BME280;67568;47.438;21.408;2023-12-04T10:39:49;101626.84;;;5.51;55.20
78313;BME280;67568;47.438;21.408;2023-12-04T10:42:24;101615.00;;;5.50;56.02
78313;BME280;67568;47.438;21.408;2023-12-04T10:44:55;101618.56;;;5.27;56.00
78313;BME280;67568;47.438;21.408;2023-12-04T10:47:22;101627.78;;;5.03;55.33
78313;BME280;67568;47.438;21.408;2023-12-04T10:49:52;101621.91;;;4.87;56.27
78313;BME280;67568;47.438;21.408;2023-12-04T10:52:19;101621.66;;;4.59;56.33
78313;BME280;67568;47.438;21.408;2023-12-04T10:54:47;101617.00;;;4.41;57.55
78313;BME280;67568;47.438;21.408;2023-12-04T10:57:27;101608.06;;;3.47;58.30
78313;BME280;67568;47.438;21.408;2023-12-04T11:00:02;101602.28;;;3.62;59.27
78313;BME280;67568;47.438;21.408;2023-12-04T11:02:33;101611.25;;;3.44;59.64
78313;BME280;67568;47.438;21.408;2023-12-04T11:05:06;101606.75;;;3.31;60.31
78313;BME280;67568;47.438;21.408;2023-12-04T11:07:34;101610.13;;;3.26;60.13
78313;BME280;67568;47.438;21.408;2023-12-04T11:10:23;101600.41;;;3.05;60.60
78313;BME280;67568;47.438;21.408;2023-12-04T11:12:55;101610.78;;;3.53;60.02
78313;BME280;67568;47.438;21.408;2023-12-04T11:15:24;101606.41;;;3.46;59.45
78313;BME280;67568;47.438;21.408;2023-12-04T11:17:58;101600.84;;;3.52;59.47
78313;BME280;67568;47.438;21.408;2023-12-04T11:20:29;101599.28;;;3.63;59.73
78313;BME280;67568;47.438;21.408;2023-12-04T11:22:58;101595.53;;;3.07;60.50
78313;BME280;67568;47.438;21.408;2023-12-04T11:25:25;101599.41;;;4.12;59.16
78313;BME280;67568;47.438;21.408;2023-12-04T11:27:53;101600.00;;;3.77;59.36
78313;BME280;67568;47.438;21.408;2023-12-04T11:30:20;101591.59;;;3.53;59.23
78313;BME280;67568;47.438;21.408;2023-12-04T11:32:48;101596.78;;;3.62;60.68
78313;BME280;67568;47.438;21.408;2023-12-04T11:35:18;101580.38;;;3.55;59.47
78313;BME280;67568;47.438;21.408;2023-12-04T11:37:53;101592.06;;;3.69;59.44
78313;BME280;67568;47.438;21.408;2023-12-04T11:40:23;101577.66;;;3.30;60.51
78313;BME280;67568;47.438;21.408;2023-12-04T11:42:50;101574.78;;;3.25;61.88
78313;BME280;67568;47.438;21.408;2023-12-04T11:45:21;101574.34;;;3.21;61.25
78313;BME280;67568;47.438;21.408;2023-12-04T11:50:20;101556.78;;;3.10;62.63
78313;BME280;67568;47.438;21.408;2023-12-04T11:52:52;101563.13;;;3.04;62.36
78313;BME280;67568;47.438;21.408;2023-12-04T11:55:25;101562.91;;;3.06;62.37
78313;BME280;67568;47.438;21.408;2023-12-04T11:57:54;101563.31;;;2.78;62.99
78313;BME280;67568;47.438;21.408;2023-12-04T12:00:22;101563.94;;;2.80;61.26
78313;BME280;67568;47.438;21.408;2023-12-04T12:05:39;101567.13;;;2.77;61.74
78313;BME280;67568;47.438;21.408;2023-12-04T12:08:08;101572.13;;;2.48;62.63
78313;BME280;67568;47.438;21.408;2023-12-04T12:10:35;101567.00;;;2.58;62.98
78313;BME280;67568;47.438;21.408;2023-12-04T12:13:01;101567.44;;;2.62;62.33
78313;BME280;67568;47.438;21.408;2023-12-04T12:15:32;101565.53;;;2.56;63.14
78313;BME280;67568;47.438;21.408;2023-12-04T12:17:59;101569.28;;;2.61;63.30
78313;BME280;67568;47.438;21.408;2023-12-04T12:20:26;101564.25;;;2.58;63.50
78313;BME280;67568;47.438;21.408;2023-12-04T12:22:53;101557.97;;;2.58;63.39
78313;BME280;67568;47.438;21.408;2023-12-04T12:25:23;101548.91;;;2.57;63.53
78313;BME280;67568;47.438;21.408;2023-12-04T12:27:50;101554.16;;;2.59;62.98
78313;BME280;67568;47.438;21.408;2023-12-04T12:30:20;101553.81;;;2.48;63.50
78313;BME280;67568;47.438;21.408;2023-12-04T12:32:47;101553.22;;;2.40;62.61
78313;BME280;67568;47.438;21.408;2023-12-04T12:35:16;101545.47;;;2.37;63.10
78313;BME280;67568;47.438;21.408;2023-12-04T12:37:43;101537.78;;;2.52;62.37
78313;BME280;67568;47.438;21.408;2023-12-04T12:40:12;101539.22;;;2.23;62.72
78313;BME280;67568;47.438;21.408;2023-12-04T12:42:39;101531.38;;;2.33;63.14
78313;BME280;67568;47.438;21.408;2023-12-04T12:45:06;101534.34;;;2.32;63.44
78313;BME280;67568;47.438;21.408;2023-12-04T12:47:34;101528.22;;;2.36;64.02
78313;BME280;67568;47.438;21.408;2023-12-04T12:50:01;101530.91;;;1.98;63.65
78313;BME280;67568;47.438;21.408;2023-12-04T12:52:29;101519.41;;;1.83;64.06
78313;BME280;67568;47.438;21.408;2023-12-04T12:54:56;101519.16;;;1.91;64.18